map of SXR home
SXR - Airport
Location
City:  Srinagar, Jammu and Kashmir, India
ICAO:VISR
IATA:SXR

Details
Type:Airport (Aerodrome, Airfield)
Use:Public/Civil, Military
Latitude:3359'14"N (33.987139)
Longitude:7446'27"E (74.774250)
Datum:WGS 1984
Elevation:5429 ft (1655 m)
Variation:2.60E (WMM2015v2 magnetic declination)
0.04 annual change
Runways:1
Longest:12090 × 150 ft (3685 × 45.5 m), paved

Time
Time Zone:UTC+5:30
Local Time:

Weather
METAR:VISR 041240Z VRB01KT 5000 FU SCT025 BKN100 04/M01 Q1027
TAF:VISR 040930Z 0412/0424 VRB02KT 6000 SCT025 BKN100
BECMG 0418/0424 4000 BR SCT025 BKN100

Related Locations
Nearby:
Farthest:IPC: 11901 mi / 19153 km
Easter Island (Isla de Pascua, Rapa Nui) [Mataveri Intl], VS, CL

Find:

   beyond  
but within

Other Information
Maps:
NOTAMs:
Links:
Sources:

  
  • flag of India
  

Sectional Chart

Flight Planning
at skyvector.com

Satellite Image

Google Maps Satellite view

 

Copyright © 2004-2019 Karl L. Swartz. All rights reserved.
The Great Circle Mapper name and logo are trademarks of the Great Circle Mapper.
All other trademarks mentioned herein belong to their respective owners.
Please see credits for attibutions and further copyright information.

  Follow gcmap on Facebook Follow gcmap on Twitter GCmap on LinkedIn

hCard Microformat

Geo Microformat